Главная страница
METAR-TAF:

METAR-TAF

Аэропорты :

Рюгге, Норвегия

широта: 59-23N, долгота: 010-47E, высота над уровнем моря: 5 м

Текущие метеонаблюдения

Эта сводка был подготовлена 16 минут назад, в 22:50 UTC
Ветер 4 Узел от восточно-северо-восточный, изменяющийся между северо-северо-восточный и восточный
Температура 13°C
Влажность 58%
Давление 1015 hPa
Видимость 10 км и более

METAR: ENRY 252250Z AUTO 06004KT 020V100 9999NDV SCT070/// 13/05 Q1015

Время: 01:06 (23:06 UTC)

Прогноз

Прогноз действительный с 25-го 18 UTC до 26-го 18 UTC
Ветер 12 Узел от восточно-северо-восточный
Видимость 10 км и более
небольшая облачность на высоте 2000 фута
Рассеянная облачность на высоте 6000 фута
временами
С 25-го 18 UTC до 25-го 20 UTC
небольшая облачность на высоте 4000 фута, Кучево-дождевые.
Рассеянная облачность на высоте 6000 фута

TAF: ENRY 2518/2618 07012KT 9999 FEW020 BKN060 TEMPO 2518/2520 FEW040CB BKN060

Метеонаблюдения и прогнозы для более 4000 аэропортов (сводки METAR и TAF).

Имеющиеся станции представлены на карте желтыми и красными точками.

Чтобы увидеть название станции, наведите на нее мышь.

Затем щелкните, чтобы увидеть метеонаблюдения и метеопрогнозы.

Управление картой: чтобы увеличить масштаб, щелкните зеленые кнопки с черным крестиком; чтобы уменьшить масштаб, щелкните зеленую кнопку с тире; для просмотра соседних карт щелкайте зеленые стрелки.


METAR-TAF: